Time;durP1;ratioP1;P1;durP2;ratioP2;P2;SDS_P1;SDS_P2;PMS_P1;PMS_P2;Temp;Humidity;BMP_temperature;BMP_pressure;BME280_temperature;BME280_humidity;BME280_pressure;Samples;Min_cycle;Max_cycle;Signal;HPM_P1;HPM_P2
2023/06/13 00:00:38;;;;;;;8.27;5.00;;;;;;;;;;5020003;28;20069;-89
2023/06/13 00:03:04;;;;;;;7.33;5.10;;;;;;;;;;5014650;28;20046;-89
2023/06/13 00:05:31;;;;;;;8.70;5.60;;;;;;;;;;5017324;28;20042;-89
2023/06/13 00:07:57;;;;;;;7.18;4.97;;;;;;;;;;5033203;28;20042;-89
2023/06/13 00:10:23;;;;;;;5.25;4.68;;;;;;;;;;5018405;28;20043;-89
2023/06/13 00:12:51;;;;;;;7.47;5.57;;;;;;;;;;5015117;28;20145;-89
2023/06/13 00:15:18;;;;;;;5.80;5.15;;;;;;;;;;5037950;28;20547;-89
2023/06/13 00:17:45;;;;;;;6.15;5.10;;;;;;;;;;5011984;28;20038;-89
2023/06/13 00:20:12;;;;;;;13.32;6.10;;;;;;;;;;5017384;28;21872;-89
2023/06/13 00:22:38;;;;;;;8.77;5.55;;;;;;;;;;4950992;28;20522;-89
2023/06/13 00:25:04;;;;;;;6.00;5.13;;;;;;;;;;4997159;28;20564;-89
2023/06/13 00:27:32;;;;;;;8.10;5.90;;;;;;;;;;5020511;28;20546;-89
2023/06/13 00:29:58;;;;;;;8.77;5.30;;;;;;;;;;4957560;28;20046;-89
2023/06/13 00:32:24;;;;;;;8.02;5.07;;;;;;;;;;5023826;28;20038;-89
2023/06/13 00:34:50;;;;;;;6.85;4.95;;;;;;;;;;5016705;28;20374;-89
2023/06/13 00:37:16;;;;;;;5.35;4.80;;;;;;;;;;5032751;28;20473;-89
2023/06/13 00:39:43;;;;;;;7.38;5.25;;;;;;;;;;5011829;28;20042;-89
2023/06/13 00:42:10;;;;;;;5.75;4.75;;;;;;;;;;5025496;28;20633;-89
2023/06/13 00:44:36;;;;;;;7.72;5.22;;;;;;;;;;5017275;28;20043;-89
2023/06/13 00:47:03;;;;;;;5.93;5.22;;;;;;;;;;5033975;28;20367;-89
2023/06/13 00:49:29;;;;;;;6.78;4.80;;;;;;;;;;5033424;28;20040;-89
2023/06/13 00:51:56;;;;;;;8.40;4.93;;;;;;;;;;5010444;28;20047;-89
2023/06/13 00:54:23;;;;;;;6.70;5.25;;;;;;;;;;5031110;28;20083;-89
2023/06/13 00:56:49;;;;;;;9.60;5.47;;;;;;;;;;5026620;28;20043;-89
2023/06/13 00:59:15;;;;;;;8.70;5.40;;;;;;;;;;5016132;28;20050;-89
2023/06/13 01:01:42;;;;;;;6.75;5.10;;;;;;;;;;5025033;28;20074;-88
2023/06/13 01:04:08;;;;;;;8.38;5.05;;;;;;;;;;5036633;28;20052;-89
2023/06/13 01:06:38;;;;;;;6.50;5.13;;;;;;;;;;5015833;28;20163;-89
2023/06/13 01:09:06;;;;;;;5.20;4.70;;;;;;;;;;5053106;28;20113;-89
2023/06/13 01:11:47;;;;;;;9.77;5.30;;;;;;;;;;5052970;28;20101;-89
2023/06/13 01:14:20;;;;;;;8.77;5.53;;;;;;;;;;5053376;28;20033;-89
2023/06/13 01:16:48;;;;;;;6.63;4.97;;;;;;;;;;5030853;28;20121;-89
2023/06/13 01:19:41;;;;;;;7.93;5.53;;;;;;;;;;5044245;28;20051;-89
2023/06/13 01:22:09;;;;;;;7.25;5.38;;;;;;;;;;5043699;28;20101;-89
2023/06/13 01:24:48;;;;;;;5.57;5.07;;;;;;;;;;5038263;28;20044;-89
2023/06/13 01:27:14;;;;;;;5.35;4.85;;;;;;;;;;5046652;28;20074;-89
2023/06/13 01:29:40;;;;;;;8.32;5.50;;;;;;;;;;5023540;28;20039;-89
2023/06/13 01:32:07;;;;;;;7.90;4.72;;;;;;;;;;5049676;28;20056;-89
2023/06/13 01:34:33;;;;;;;11.65;5.38;;;;;;;;;;5047609;28;20032;-88
2023/06/13 01:36:59;;;;;;;6.25;5.10;;;;;;;;;;5046558;28;20136;-88
2023/06/13 01:39:25;;;;;;;8.98;5.32;;;;;;;;;;5035972;28;20062;-87
2023/06/13 01:41:51;;;;;;;7.65;5.15;;;;;;;;;;5070040;28;20586;-87
2023/06/13 01:44:18;;;;;;;9.00;5.68;;;;;;;;;;5053622;28;20142;-88
2023/06/13 01:46:45;;;;;;;9.35;5.15;;;;;;;;;;5030416;28;20067;-88
2023/06/13 01:49:19;;;;;;;5.63;5.03;;;;;;;;;;5045232;28;20048;-87
2023/06/13 01:51:49;;;;;;;6.35;5.05;;;;;;;;;;5025052;28;20032;-88
2023/06/13 01:54:15;;;;;;;7.72;5.18;;;;;;;;;;5044703;28;20039;-87
2023/06/13 01:56:42;;;;;;;8.52;5.70;;;;;;;;;;5025593;28;20379;-87
2023/06/13 01:59:08;;;;;;;7.57;5.22;;;;;;;;;;5021320;28;20603;-87
2023/06/13 02:01:35;;;;;;;9.05;5.28;;;;;;;;;;5032382;28;20051;-88
2023/06/13 02:04:02;;;;;;;6.40;5.60;;;;;;;;;;5048726;28;20051;-88
2023/06/13 02:06:29;;;;;;;7.80;5.60;;;;;;;;;;5034323;28;20425;-88
2023/06/13 02:08:55;;;;;;;8.30;5.28;;;;;;;;;;5019197;28;20044;-88
2023/06/13 02:11:21;;;;;;;8.02;5.55;;;;;;;;;;5009839;28;20395;-88
2023/06/13 02:13:48;;;;;;;6.80;5.32;;;;;;;;;;5030694;28;20036;-87
2023/06/13 02:16:14;;;;;;;7.50;5.45;;;;;;;;;;5012830;28;20106;-87
2023/06/13 02:18:41;;;;;;;7.25;5.63;;;;;;;;;;5029526;28;20097;-87
2023/06/13 02:21:07;;;;;;;6.10;5.50;;;;;;;;;;5030670;28;20048;-87
2023/06/13 02:23:33;;;;;;;6.55;5.70;;;;;;;;;;5046661;28;20478;-87
2023/06/13 02:25:59;;;;;;;7.75;5.88;;;;;;;;;;5051176;28;20093;-87
2023/06/13 02:28:25;;;;;;;8.02;5.72;;;;;;;;;;5048013;28;20039;-87
2023/06/13 02:30:52;;;;;;;7.80;5.53;;;;;;;;;;5038674;28;20039;-88
2023/06/13 02:33:18;;;;;;;6.45;5.80;;;;;;;;;;5038956;28;20371;-87
2023/06/13 02:35:48;;;;;;;7.47;5.45;;;;;;;;;;5025029;28;20375;-87
2023/06/13 02:38:14;;;;;;;6.30;4.85;;;;;;;;;;5029747;28;20037;-87
2023/06/13 02:40:40;;;;;;;6.55;5.80;;;;;;;;;;5019703;28;20063;-87
2023/06/13 02:43:06;;;;;;;7.82;5.45;;;;;;;;;;5036267;28;20171;-87
2023/06/13 02:45:32;;;;;;;7.32;5.90;;;;;;;;;;5035445;28;20044;-87
2023/06/13 02:47:58;;;;;;;6.10;5.38;;;;;;;;;;5048778;28;23344;-88
2023/06/13 02:50:24;;;;;;;8.98;6.18;;;;;;;;;;5050359;28;20036;-88
2023/06/13 02:52:50;;;;;;;6.60;5.55;;;;;;;;;;5043962;28;20055;-88
2023/06/13 02:55:17;;;;;;;7.38;5.78;;;;;;;;;;5048632;28;20536;-87
2023/06/13 02:57:44;;;;;;;12.27;5.65;;;;;;;;;;5043831;28;20450;-87
2023/06/13 03:00:11;;;;;;;10.93;5.50;;;;;;;;;;5049118;28;20047;-87
2023/06/13 03:02:37;;;;;;;8.90;5.40;;;;;;;;;;5030970;28;20039;-87
2023/06/13 03:05:07;;;;;;;7.80;5.30;;;;;;;;;;5006051;28;20051;-87
2023/06/13 03:07:33;;;;;;;8.55;5.75;;;;;;;;;;5017906;28;20040;-87
2023/06/13 03:10:03;;;;;;;7.75;5.90;;;;;;;;;;5015615;28;21222;-87
2023/06/13 03:12:30;;;;;;;9.07;5.75;;;;;;;;;;5030129;28;20063;-87
2023/06/13 03:14:56;;;;;;;7.82;5.88;;;;;;;;;;5053349;28;20498;-87
2023/06/13 03:17:22;;;;;;;8.32;5.53;;;;;;;;;;5032756;28;20178;-87
2023/06/13 03:19:48;;;;;;;6.90;5.60;;;;;;;;;;5052125;28;20040;-88
2023/06/13 03:22:14;;;;;;;5.93;4.88;;;;;;;;;;5030223;28;20037;-87
2023/06/13 03:24:42;;;;;;;7.32;5.72;;;;;;;;;;5029273;28;20090;-87
2023/06/13 03:27:09;;;;;;;6.85;5.57;;;;;;;;;;5042295;28;20062;-87
2023/06/13 03:29:35;;;;;;;6.97;5.38;;;;;;;;;;5050845;28;20390;-88
2023/06/13 03:32:01;;;;;;;9.10;5.97;;;;;;;;;;5021695;28;20565;-88
2023/06/13 03:34:28;;;;;;;6.55;5.43;;;;;;;;;;5050277;28;20498;-87
2023/06/13 03:36:54;;;;;;;8.57;5.25;;;;;;;;;;5027023;28;20040;-87
2023/06/13 03:39:20;;;;;;;7.28;5.38;;;;;;;;;;5031365;28;20047;-87
2023/06/13 03:41:46;;;;;;;7.65;5.07;;;;;;;;;;5046051;28;20040;-87
2023/06/13 03:44:13;;;;;;;5.97;5.13;;;;;;;;;;4993301;28;1232269;-87
2023/06/13 03:46:42;;;;;;;10.27;5.70;;;;;;;;;;5035989;28;20043;-87
2023/06/13 03:49:08;;;;;;;7.80;4.70;;;;;;;;;;5035627;28;20153;-87
2023/06/13 03:51:34;;;;;;;5.53;5.00;;;;;;;;;;5044260;28;20182;-87
2023/06/13 03:54:01;;;;;;;5.65;5.03;;;;;;;;;;5029314;28;20032;-87
2023/06/13 03:56:27;;;;;;;5.75;5.15;;;;;;;;;;5051313;28;20047;-87
2023/06/13 03:58:53;;;;;;;6.75;5.25;;;;;;;;;;5030001;28;20097;-87
2023/06/13 04:01:19;;;;;;;7.03;4.78;;;;;;;;;;5046746;28;20067;-87
2023/06/13 04:03:46;;;;;;;5.55;4.95;;;;;;;;;;5060283;28;20044;-87
2023/06/13 04:06:12;;;;;;;8.30;5.05;;;;;;;;;;5049520;28;20054;-87
2023/06/13 04:08:41;;;;;;;7.85;5.50;;;;;;;;;;5016638;28;20415;-87
2023/06/13 04:11:07;;;;;;;7.70;5.60;;;;;;;;;;5041140;28;20047;-87
2023/06/13 04:13:33;;;;;;;10.75;5.32;;;;;;;;;;5028707;28;20032;-87
2023/06/13 04:15:59;;;;;;;8.90;5.25;;;;;;;;;;5050151;28;20768;-87
2023/06/13 04:18:25;;;;;;;8.13;5.07;;;;;;;;;;5048924;28;20387;-87
2023/06/13 04:20:52;;;;;;;10.75;5.30;;;;;;;;;;5032057;28;20044;-87
2023/06/13 04:23:19;;;;;;;8.02;5.53;;;;;;;;;;5051731;28;20481;-87
2023/06/13 04:25:45;;;;;;;6.72;4.90;;;;;;;;;;5059881;28;20071;-88
2023/06/13 04:28:13;;;;;;;8.52;5.88;;;;;;;;;;5015375;28;20043;-88
2023/06/13 04:30:46;;;;;;;9.65;5.03;;;;;;;;;;5033689;28;20367;-88
2023/06/13 04:33:17;;;;;;;7.25;5.68;;;;;;;;;;5014204;28;20040;-88
2023/06/13 04:35:44;;;;;;;8.30;5.40;;;;;;;;;;5012047;28;20115;-88
2023/06/13 04:38:21;;;;;;;8.57;5.13;;;;;;;;;;5034678;28;20516;-88
2023/06/13 04:40:48;;;;;;;8.17;5.50;;;;;;;;;;5016101;28;20040;-87
2023/06/13 04:43:17;;;;;;;7.03;5.22;;;;;;;;;;5016039;28;20070;-87
2023/06/13 04:45:43;;;;;;;8.43;5.57;;;;;;;;;;5031640;28;20090;-86
2023/06/13 04:48:10;;;;;;;9.40;5.75;;;;;;;;;;5034601;28;20055;-88
2023/06/13 04:50:39;;;;;;;8.65;5.57;;;;;;;;;;5046568;28;20420;-85
2023/06/13 04:53:08;;;;;;;6.00;5.32;;;;;;;;;;5019430;28;20039;-88
2023/06/13 04:55:37;;;;;;;7.60;5.53;;;;;;;;;;5029683;28;20481;-86
2023/06/13 04:58:04;;;;;;;6.78;5.25;;;;;;;;;;5045243;28;20044;-85
2023/06/13 05:00:30;;;;;;;7.05;5.70;;;;;;;;;;5033019;28;20051;-85
2023/06/13 05:02:56;;;;;;;9.00;5.85;;;;;;;;;;5026488;28;20075;-85
2023/06/13 05:05:22;;;;;;;7.35;5.40;;;;;;;;;;5047823;28;20108;-86
2023/06/13 05:07:55;;;;;;;7.85;5.63;;;;;;;;;;5010815;28;20096;-86
2023/06/13 05:10:24;;;;;;;9.27;5.50;;;;;;;;;;5053396;28;20048;-86
2023/06/13 05:12:51;;;;;;;8.52;4.97;;;;;;;;;;5027687;28;20043;-88
2023/06/13 05:15:18;;;;;;;7.25;5.53;;;;;;;;;;5033477;28;20451;-89
2023/06/13 05:17:45;;;;;;;6.30;5.32;;;;;;;;;;5045012;28;20390;-89
2023/06/13 05:20:12;;;;;;;9.70;6.10;;;;;;;;;;5079559;28;20036;-89
2023/06/13 05:22:41;;;;;;;7.95;5.32;;;;;;;;;;5072045;28;20062;-90
2023/06/13 05:25:11;;;;;;;7.95;5.65;;;;;;;;;;5069490;28;20035;-89
2023/06/13 05:27:40;;;;;;;6.47;5.03;;;;;;;;;;5038436;28;20039;-89
2023/06/13 05:30:09;;;;;;;6.30;5.60;;;;;;;;;;5041998;28;20364;-89
2023/06/13 05:32:35;;;;;;;8.30;5.43;;;;;;;;;;5040825;28;20051;-89
2023/06/13 05:38:49;;;;;;;;;;;;;;;;;;;;;
2023/06/13 05:41:24;;;;;;;7.63;5.22;;;;;;;;;;5059189;28;20719;-84
2023/06/13 05:44:27;;;;;;;6.57;5.15;;;;;;;;;;5056064;28;20413;-83
2023/06/13 05:47:13;;;;;;;7.70;6.00;;;;;;;;;;5044193;28;20202;-84
2023/06/13 06:08:33;;;;;;;6.70;4.85;;;;;;;;;;4998477;28;20096;-85
2023/06/13 06:19:25;;;;;;;;;;;;;;;;;;;;;
2023/06/13 06:23:01;;;;;;;6.20;4.43;;;;;;;;;;4968700;28;20050;-85
2023/06/13 07:03:13;;;;;;;4.05;3.63;;;;;;;;;;4138845;26;20059;-85
2023/06/13 07:06:38;;;;;;;;;;;;;;;;;;;;;
2023/06/13 07:10:06;;;;;;;3.88;3.25;;;;;;;;;;5038954;27;20050;-85
2023/06/13 07:34:14;;;;;;;5.45;3.58;;;;;;;;;;5021967;28;20131;-86
2023/06/13 07:41:11;;;;;;;5.13;3.45;;;;;;;;;;4968272;28;20072;-86
2023/06/13 07:44:23;;;;;;;5.38;3.20;;;;;;;;;;4925693;28;20058;-86
2023/06/13 07:48:01;;;;;;;;;;;;;;;;;;;;;
2023/06/13 07:56:52;;;;;;;6.75;3.03;;;;;;;;;;4123377;25;20418;-86
2023/06/13 08:14:37;;;;;;;;;;;;;;;;;;;;;
2023/06/13 08:21:25;;;;;;;5.80;2.80;;;;;;;;;;4940200;28;20054;-86
2023/06/13 08:31:26;;;;;;;7.90;3.15;;;;;;;;;;4873083;29;20100;-86
2023/06/13 08:34:20;;;;;;;4.97;3.08;;;;;;;;;;4863347;29;20080;-86
2023/06/13 08:44:50;;;;;;;3.58;2.65;;;;;;;;;;4893563;29;20581;-85
2023/06/13 08:47:47;;;;;;;;;;;;;;;;;;;;;
2023/06/13 09:04:12;;;;;;;3.42;2.78;;;;;;;;;;4978780;28;20534;-85
2023/06/13 09:07:23;;;;;;;;;;;;;;;;;;;;;
2023/06/13 09:13:57;;;;;;;2.90;2.65;;;;;;;;;;4866027;29;20060;-85
2023/06/13 09:24:27;;;;;;;7.18;2.90;;;;;;;;;;4802759;29;20593;-86
2023/06/13 09:34:01;;;;;;;;;;;;;;;;;;;;;
2023/06/13 09:46:19;;;;;;;7.00;3.00;;;;;;;;;;4880477;29;20082;-86
2023/06/13 10:03:30;;;;;;;4.50;2.70;;;;;;;;;;4900976;28;20054;-86
2023/06/13 10:06:30;;;;;;;;;;;;;;;;;;;;;
2023/06/13 10:09:49;;;;;;;4.43;2.95;;;;;;;;;;4938038;28;20050;-85
2023/06/13 10:16:38;;;;;;;;;;;;;;;;;;;;;
2023/06/13 10:30:04;;;;;;;4.65;3.05;;;;;;;;;;4812493;29;20086;-85
2023/06/13 10:36:28;;;;;;;4.78;3.00;;;;;;;;;;4846491;29;20050;-86
2023/06/13 10:43:00;;;;;;;4.40;3.53;;;;;;;;;;4910947;29;20142;-86
2023/06/13 10:50:03;;;;;;;;;;;;;;;;;;;;;
2023/06/13 10:56:47;;;;;;;5.18;3.08;;;;;;;;;;4703096;29;20411;-86
2023/06/13 11:04:26;;;;;;;7.18;3.00;;;;;;;;;;4871458;29;20515;-85
2023/06/13 11:14:49;;;;;;;;;;;;;;;;;;;;;
2023/06/13 11:18:13;;;;;;;;;;;;;;;;;;;;;
2023/06/13 11:24:44;;;;;;;4.97;3.15;;;;;;;;;;4873175;29;20093;-85
2023/06/13 11:27:36;;;;;;;3.65;2.97;;;;;;;;;;4858959;29;20135;-86
2023/06/13 11:34:12;;;;;;;4.75;3.17;;;;;;;;;;4857751;29;20090;-86
2023/06/13 11:37:44;;;;;;;;;;;;;;;;;;;;;
2023/06/13 11:44:12;;;;;;;;;;;;;;;;;;;;;
2023/06/13 11:46:58;;;;;;;;;;;;;;;;;;;;;
2023/06/13 11:57:46;;;;;;;;;;;;;;;;;;;;;
2023/06/13 12:04:46;;;;;;;7.88;3.60;;;;;;;;;;4913138;29;20229;-85
2023/06/13 12:07:57;;;;;;;7.13;3.17;;;;;;;;;;4924082;28;20507;-85
2023/06/13 12:14:32;;;;;;;6.87;3.17;;;;;;;;;;4886450;29;21527;-85
2023/06/13 12:17:28;;;;;;;;;;;;;;;;;;;;;
2023/06/13 12:24:19;;;;;;;6.18;3.60;;;;;;;;;;4829387;29;20056;-85
2023/06/13 12:37:39;;;;;;;;;;;;;;;;;;;;;
2023/06/13 12:40:51;;;;;;;6.63;3.08;;;;;;;;;;4814810;29;20060;-85
2023/06/13 12:46:38;;;;;;;4.43;3.08;;;;;;;;;;4839827;29;20134;-85
2023/06/13 12:49:36;;;;;;;4.63;3.33;;;;;;;;;;4787055;29;21427;-85
2023/06/13 12:52:40;;;;;;;;;;;;;;;;;;;;;
2023/06/13 13:09:46;;;;;;;;;;;;;;;;;;;;;
2023/06/13 13:15:50;;;;;;;3.75;2.90;;;;;;;;;;4785570;29;20402;-86
2023/06/13 13:19:00;;;;;;;;;;;;;;;;;;;;;
2023/06/13 13:25:30;;;;;;;;;;;;;;;;;;;;;
2023/06/13 13:38:55;;;;;;;4.38;2.72;;;;;;;;;;4731078;30;20604;-86
2023/06/13 13:52:00;;;;;;;5.32;3.20;;;;;;;;;;4824719;29;20063;-86
2023/06/13 13:55:29;;;;;;;;;;;;;;;;;;;;;
2023/06/13 13:58:21;;;;;;;;;;;;;;;;;;;;;
2023/06/13 14:12:18;;;;;;;5.03;3.03;;;;;;;;;;4842370;29;20045;-87
2023/06/13 14:15:32;;;;;;;3.00;2.70;;;;;;;;;;4817499;29;20072;-86
2023/06/13 14:24:06;;;;;;;;;;;;;;;;;;;;;
2023/06/13 14:27:13;;;;;;;;;;;;;;;;;;;;;
2023/06/13 14:30:31;;;;;;;;;;;;;;;;;;;;;
2023/06/13 14:37:25;;;;;;;;;;;;;;;;;;;;;
2023/06/13 14:54:16;;;;;;;5.43;2.55;;;;;;;;;;4935076;28;20117;-88
2023/06/13 14:57:17;;;;;;;6.72;2.83;;;;;;;;;;4881646;29;20147;-87
2023/06/13 15:03:57;;;;;;;4.43;2.50;;;;;;;;;;4806432;29;20090;-87
2023/06/13 15:17:53;;;;;;;;;;;;;;;;;;;;;
2023/06/13 15:31:40;;;;;;;3.30;2.38;;;;;;;;;;4869264;29;20044;-84
2023/06/13 15:34:29;;;;;;;5.70;2.30;;;;;;;;;;4934000;28;20464;-84
2023/06/13 15:37:05;;;;;;;7.70;2.55;;;;;;;;;;4949852;28;20043;-83
2023/06/13 15:40:19;;;;;;;3.72;2.58;;;;;;;;;;4939626;28;20062;-83
2023/06/13 15:43:18;;;;;;;5.80;2.60;;;;;;;;;;4884066;29;20451;-83
2023/06/13 15:46:20;;;;;;;2.63;2.40;;;;;;;;;;4890192;29;20460;-84
2023/06/13 15:49:02;;;;;;;7.90;2.85;;;;;;;;;;4862789;29;20052;-85
2023/06/13 15:51:52;;;;;;;4.95;2.50;;;;;;;;;;4888606;29;20118;-85
2023/06/13 15:54:54;;;;;;;5.40;2.35;;;;;;;;;;4874131;29;20139;-85
2023/06/13 15:57:28;;;;;;;3.75;2.40;;;;;;;;;;4875482;29;20716;-82
2023/06/13 16:00:14;;;;;;;5.22;2.72;;;;;;;;;;4873810;29;20600;-86
2023/06/13 16:07:24;;;;;;;5.22;2.30;;;;;;;;;;4897234;29;20074;-84
2023/06/13 16:10:17;;;;;;;4.65;2.50;;;;;;;;;;4891286;29;20994;-85
2023/06/13 16:13:28;;;;;;;4.47;2.50;;;;;;;;;;4881192;28;20054;-84
2023/06/13 16:19:29;;;;;;;3.55;2.67;;;;;;;;;;4942564;28;20086;-84
2023/06/13 16:22:37;;;;;;;4.05;2.30;;;;;;;;;;4944803;28;20045;-84
2023/06/13 16:25:45;;;;;;;3.90;2.70;;;;;;;;;;4938367;28;20042;-85
2023/06/13 16:31:24;;;;;;;4.00;2.53;;;;;;;;;;4893581;28;19934;-84
2023/06/13 16:34:28;;;;;;;4.82;2.65;;;;;;;;;;4910729;28;20460;-86
2023/06/13 16:37:32;;;;;;;;;;;;;;;;;;;;;
2023/06/13 16:44:23;;;;;;;3.03;2.30;;;;;;;;;;4838574;29;20130;-85
2023/06/13 16:47:24;;;;;;;;;;;;;;;;;;;;;
2023/06/13 16:53:45;;;;;;;4.35;2.50;;;;;;;;;;4989822;28;20042;-85
2023/06/13 16:57:12;;;;;;;4.05;2.40;;;;;;;;;;4970580;28;20488;-86
2023/06/13 17:06:29;;;;;;;5.50;2.58;;;;;;;;;;4956221;28;20060;-83
2023/06/13 17:09:39;;;;;;;3.28;2.42;;;;;;;;;;4948389;28;20085;-84
2023/06/13 17:15:23;;;;;;;2.78;2.47;;;;;;;;;;4964535;28;20097;-83
2023/06/13 17:18:16;;;;;;;3.75;2.72;;;;;;;;;;4908679;28;20042;-83
2023/06/13 17:21:00;;;;;;;4.68;2.83;;;;;;;;;;4872347;29;20130;-84
2023/06/13 17:23:41;;;;;;;5.30;2.47;;;;;;;;;;4863497;29;20055;-85
2023/06/13 17:26:28;;;;;;;3.83;2.70;;;;;;;;;;4851595;29;20758;-85
2023/06/13 17:29:34;;;;;;;2.63;2.42;;;;;;;;;;4839408;29;21271;-85
2023/06/13 17:32:46;;;;;;;;;;;;;;;;;;;;;
2023/06/13 17:48:06;;;;;;;6.22;2.67;;;;;;;;;;4864634;29;20059;-85
2023/06/13 17:50:56;;;;;;;3.25;2.30;;;;;;;;;;4833889;29;20054;-83
2023/06/13 17:53:56;;;;;;;;;;;;;;;;;;;;;
2023/06/13 18:03:43;;;;;;;4.38;2.50;;;;;;;;;;4857398;29;20433;-86
2023/06/13 18:06:36;;;;;;;3.22;2.20;;;;;;;;;;4887651;29;20052;-84
2023/06/13 18:10:06;;;;;;;5.25;2.65;;;;;;;;;;4974241;28;20083;-84
2023/06/13 18:12:46;;;;;;;3.65;2.22;;;;;;;;;;4965987;28;20485;-84
2023/06/13 18:15:33;;;;;;;5.68;2.28;;;;;;;;;;4976846;28;20099;-86
2023/06/13 18:18:35;;;;;;;4.88;2.20;;;;;;;;;;4961544;28;20050;-84
2023/06/13 18:21:27;;;;;;;4.40;2.10;;;;;;;;;;4961645;28;20069;-84
2023/06/13 18:24:09;;;;;;;6.63;2.28;;;;;;;;;;4966817;28;21451;-84
2023/06/13 18:26:56;;;;;;;4.95;2.08;;;;;;;;;;4976181;28;20053;-83
2023/06/13 18:29:56;;;;;;;2.35;2.10;;;;;;;;;;4988454;28;21308;-83
2023/06/13 18:32:44;;;;;;;;;;;;;;;;;;;;;
2023/06/13 18:35:27;;;;;;;3.00;2.30;;;;;;;;;;4996178;28;20546;-83
2023/06/13 18:37:58;;;;;;;5.40;2.53;;;;;;;;;;4960158;28;20033;-83
2023/06/13 18:40:36;;;;;;;5.25;2.80;;;;;;;;;;4977421;28;20083;-83
2023/06/13 18:43:18;;;;;;;6.05;2.67;;;;;;;;;;4995492;28;20146;-89
2023/06/13 18:46:24;;;;;;;4.32;2.80;;;;;;;;;;4990296;28;20040;-84
2023/06/13 18:49:13;;;;;;;7.30;2.80;;;;;;;;;;4967404;28;20148;-83
2023/06/13 18:52:27;;;;;;;6.38;2.65;;;;;;;;;;4992780;28;20144;-84
2023/06/13 18:55:14;;;;;;;7.97;2.78;;;;;;;;;;4992939;28;20443;-83
2023/06/13 18:58:22;;;;;;;5.80;2.88;;;;;;;;;;4993015;28;20472;-83
2023/06/13 19:00:53;;;;;;;9.80;2.90;;;;;;;;;;4935207;28;20080;-83
2023/06/13 19:03:41;;;;;;;3.97;2.70;;;;;;;;;;4916323;28;20054;-83
2023/06/13 19:06:25;;;;;;;6.03;3.05;;;;;;;;;;4941423;28;20061;-83
2023/06/13 19:09:11;;;;;;;6.40;2.53;;;;;;;;;;4918768;28;20055;-83
2023/06/13 19:15:04;;;;;;;5.13;2.75;;;;;;;;;;4948409;28;20583;-83
2023/06/13 19:17:47;;;;;;;4.72;2.60;;;;;;;;;;4921835;28;20039;-83
2023/06/13 19:20:21;;;;;;;5.43;2.92;;;;;;;;;;4936076;28;20121;-88
2023/06/13 19:22:56;;;;;;;7.07;2.83;;;;;;;;;;4948302;28;20858;-80
2023/06/13 19:25:34;;;;;;;;;;;;;;;;;;;;;
2023/06/13 19:28:27;;;;;;;;;;;;;;;;;;;;;
2023/06/13 19:31:11;;;;;;;5.95;2.60;;;;;;;;;;4942083;28;20658;-84
2023/06/13 19:36:33;;;;;;;4.65;2.67;;;;;;;;;;5220908;22;20495;-89
2023/06/13 19:39:48;;;;;;;6.25;2.55;;;;;;;;;;4978903;28;20393;-89
2023/06/13 19:42:44;;;;;;;5.72;2.65;;;;;;;;;;5227613;22;20131;-90
2023/06/13 19:45:10;;;;;;;6.53;2.95;;;;;;;;;;4999627;28;20138;-90
2023/06/13 19:47:45;;;;;;;5.07;3.08;;;;;;;;;;4990222;28;20056;-90
2023/06/13 19:52:58;;;;;;;5.55;2.88;;;;;;;;;;5183581;22;20076;-83
2023/06/13 19:56:06;;;;;;;4.07;2.73;;;;;;;;;;5010402;28;20094;-85
2023/06/13 19:58:47;;;;;;;10.18;2.85;;;;;;;;;;5015602;28;20287;-85
2023/06/13 20:01:21;;;;;;;3.83;2.88;;;;;;;;;;4998007;28;20052;-85
2023/06/13 20:04:01;;;;;;;7.28;3.33;;;;;;;;;;5014651;28;20045;-85
2023/06/13 20:06:58;;;;;;;3.35;2.72;;;;;;;;;;5019170;28;20047;-84
2023/06/13 20:09:44;;;;;;;7.43;3.17;;;;;;;;;;5003183;28;20093;-82
2023/06/13 20:12:33;;;;;;;10.27;3.00;;;;;;;;;;5004468;28;20052;-82
2023/06/13 20:15:14;;;;;;;4.93;2.65;;;;;;;;;;5014849;28;20032;-82
2023/06/13 20:17:45;;;;;;;7.43;2.92;;;;;;;;;;5000201;28;20037;-82
2023/06/13 20:20:22;;;;;;;5.72;3.30;;;;;;;;;;5004860;28;20072;-82
2023/06/13 20:22:56;;;;;;;4.10;2.60;;;;;;;;;;4977757;28;20513;-82
2023/06/13 20:25:40;;;;;;;8.60;3.22;;;;;;;;;;5011799;28;20843;-83
2023/06/13 20:28:09;;;;;;;7.13;3.00;;;;;;;;;;4996507;28;20052;-82
2023/06/13 20:30:42;;;;;;;5.15;2.83;;;;;;;;;;4988946;28;20527;-82
2023/06/13 20:33:14;;;;;;;5.00;3.10;;;;;;;;;;4997230;28;20106;-82
2023/06/13 20:35:59;;;;;;;5.68;3.10;;;;;;;;;;4988661;28;20045;-84
2023/06/13 20:38:44;;;;;;;9.27;3.13;;;;;;;;;;4990356;28;20143;-84
2023/06/13 20:41:19;;;;;;;6.47;2.60;;;;;;;;;;4999447;28;20053;-84
2023/06/13 20:44:10;;;;;;;4.45;2.80;;;;;;;;;;4991914;28;20065;-84
2023/06/13 20:46:47;;;;;;;8.05;3.30;;;;;;;;;;5001697;28;20064;-84
2023/06/13 20:49:23;;;;;;;7.28;3.17;;;;;;;;;;4981016;28;20053;-84
2023/06/13 20:52:09;;;;;;;6.35;2.60;;;;;;;;;;4969831;28;20088;-84
2023/06/13 20:54:43;;;;;;;8.48;3.20;;;;;;;;;;5006625;28;20034;-84
2023/06/13 20:57:37;;;;;;;5.38;2.83;;;;;;;;;;4995681;28;20095;-83
2023/06/13 21:00:29;;;;;;;8.70;3.03;;;;;;;;;;4987169;28;20050;-84
2023/06/13 21:03:09;;;;;;;6.40;2.78;;;;;;;;;;4994334;28;20037;-84
2023/06/13 21:05:48;;;;;;;4.70;2.58;;;;;;;;;;4977383;28;20071;-84
2023/06/13 21:08:19;;;;;;;10.25;2.80;;;;;;;;;;5011514;28;20483;-84
2023/06/13 21:10:56;;;;;;;6.40;3.25;;;;;;;;;;4985178;28;20132;-83
2023/06/13 21:17:05;;;;;;;6.43;2.83;;;;;;;;;;4918132;29;20070;-83
2023/06/13 21:19:57;;;;;;;4.78;2.30;;;;;;;;;;4988483;28;20399;-83
2023/06/13 21:22:37;;;;;;;7.93;2.50;;;;;;;;;;5004857;28;20049;-83
2023/06/13 21:25:09;;;;;;;3.80;2.55;;;;;;;;;;4992258;28;20526;-84
2023/06/13 21:27:44;;;;;;;6.97;2.78;;;;;;;;;;4990636;28;20045;-83
2023/06/13 21:30:18;;;;;;;3.05;2.20;;;;;;;;;;4976202;28;20049;-84
2023/06/13 21:32:50;;;;;;;3.88;2.42;;;;;;;;;;4995514;28;20405;-84
2023/06/13 21:35:32;;;;;;;;;;;;;;;;;;;;;
2023/06/13 21:38:25;;;;;;;6.30;2.90;;;;;;;;;;5004174;28;20049;-83
2023/06/13 21:40:58;;;;;;;6.43;2.58;;;;;;;;;;4990675;28;20041;-84
2023/06/13 21:43:34;;;;;;;3.70;2.38;;;;;;;;;;4991978;28;20075;-83
2023/06/13 21:46:05;;;;;;;4.10;2.30;;;;;;;;;;4983609;28;20041;-83
2023/06/13 21:49:22;;;;;;;;;;;;;;;;;;;;;
2023/06/13 21:52:00;;;;;;;6.95;2.50;;;;;;;;;;5029082;28;20052;-84
2023/06/13 21:54:43;;;;;;;5.80;2.67;;;;;;;;;;4997365;28;20056;-83
2023/06/13 21:57:18;;;;;;;7.15;2.55;;;;;;;;;;5000235;28;20043;-83
2023/06/13 21:59:46;;;;;;;6.97;2.40;;;;;;;;;;4999772;28;20392;-84
2023/06/13 22:02:21;;;;;;;8.57;2.45;;;;;;;;;;4977880;28;20475;-84
2023/06/13 22:04:53;;;;;;;5.22;2.40;;;;;;;;;;4978146;28;20597;-84
2023/06/13 22:07:28;;;;;;;6.28;2.63;;;;;;;;;;5001394;28;23562;-84
2023/06/13 22:10:06;;;;;;;4.95;2.35;;;;;;;;;;4991623;28;20099;-84
2023/06/13 22:13:07;;;;;;;6.45;2.70;;;;;;;;;;4996185;28;20045;-84
2023/06/13 22:15:57;;;;;;;8.63;2.42;;;;;;;;;;4997884;28;20052;-83
2023/06/13 22:18:44;;;;;;;6.70;2.42;;;;;;;;;;5013672;28;20573;-84
2023/06/13 22:21:27;;;;;;;4.22;2.10;;;;;;;;;;4993864;28;20131;-84
2023/06/13 22:23:53;;;;;;;4.75;2.20;;;;;;;;;;4997108;28;20452;-84
2023/06/13 22:26:29;;;;;;;4.18;2.47;;;;;;;;;;4986006;28;20049;-84
2023/06/13 22:32:39;;;;;;;6.70;2.40;;;;;;;;;;5014705;28;20094;-83
2023/06/13 22:42:52;;;;;;;6.90;2.20;;;;;;;;;;4895884;28;20419;-84
2023/06/13 22:45:45;;;;;;;;;;;;;;;;;;4886615;29;20052;-83
2023/06/13 22:52:11;;;;;;;6.10;2.00;;;;;;;;;;4838497;29;20120;-84
2023/06/13 23:31:26;;;;;;;8.45;2.10;;;;;;;;;;5350362;24;20598;-83
2023/06/13 23:48:19;;;;;;;4.70;2.10;;;;;;;;;;5422447;23;20066;-82
2023/06/13 23:53:53;;;;;;;2.63;1.92;;;;;;;;;;4746332;30;20039;-82
2023/06/13 23:59:43;;;;;;;3.35;2.20;;;;;;;;;;5460655;24;20065;-82
